createdAt,value
2023-03-27T00:40:17.812Z,12.20
2023-03-27T00:45:28.668Z,12.30
2023-03-27T00:50:37.693Z,12.20
2023-03-27T00:55:53.885Z,12.16
2023-03-27T01:01:03.625Z,12.27
2023-03-27T01:06:28.082Z,12.31
2023-03-27T01:11:47.883Z,12.31
2023-03-27T01:17:11.159Z,12.02
2023-03-27T01:23:04.390Z,11.77
2023-03-27T01:28:29.177Z,11.46
2023-03-27T01:34:16.422Z,11.36
2023-03-27T01:39:46.494Z,11.47
2023-03-27T01:44:57.167Z,11.50
2023-03-27T01:50:12.044Z,11.37
2023-03-27T01:55:21.922Z,11.25
2023-03-27T02:00:27.915Z,11.26
2023-03-27T02:05:57.515Z,11.27
2023-03-27T02:11:04.734Z,11.35
2023-03-27T03:17:20.833Z,10.59
2023-03-27T03:22:30.084Z,10.51
2023-03-27T03:27:34.297Z,10.43
2023-03-27T03:32:41.996Z,10.33
2023-03-27T03:37:50.828Z,10.33
2023-03-27T03:42:54.635Z,10.33
2023-03-27T03:53:17.355Z,10.30
2023-03-27T03:58:34.152Z,10.31
2023-03-27T04:03:58.527Z,10.15
2023-03-27T04:09:01.746Z,10.05
2023-03-27T04:14:07.427Z,10.00
2023-03-27T04:19:22.519Z,10.01
2023-03-27T04:24:25.743Z,9.89
2023-03-27T04:29:35.380Z,9.76
2023-03-27T04:34:59.040Z,9.80
2023-03-27T04:40:05.310Z,9.66
2023-03-27T04:45:37.326Z,9.73
2023-03-27T04:50:52.420Z,9.91
2023-03-27T04:55:57.387Z,9.95
2023-03-27T05:01:02.520Z,10.05
2023-03-27T05:06:13.094Z,10.09
2023-03-27T05:11:20.492Z,10.22
2023-03-27T05:16:24.472Z,10.09
2023-03-27T05:21:33.219Z,10.04
2023-03-27T05:26:42.057Z,10.03
2023-03-27T05:32:13.558Z,10.01
2023-03-27T05:37:37.151Z,10.05
2023-03-27T05:42:54.514Z,9.96
2023-03-27T05:48:01.152Z,10.00
2023-03-27T05:53:10.374Z,10.03
2023-03-27T05:58:16.869Z,9.97
2023-03-27T06:03:35.471Z,9.93
2023-03-27T06:08:59.306Z,9.88
2023-03-27T06:14:05.614Z,9.85
2023-03-27T06:19:25.056Z,9.85
2023-03-27T06:24:48.455Z,9.86
2023-03-27T06:30:17.546Z,9.94
2023-03-27T07:32:36.303Z,13.60
2023-03-27T07:37:44.816Z,14.44
2023-03-27T07:42:58.045Z,14.66
2023-03-27T07:48:13.364Z,15.24
2023-03-27T09:44:06.544Z,19.23
2023-03-27T09:49:23.141Z,19.85
2023-03-27T09:54:47.486Z,19.97
2023-03-27T10:00:15.616Z,19.92
2023-03-27T10:05:28.316Z,20.27
2023-03-27T10:10:56.703Z,20.85
2023-03-27T10:16:07.548Z,20.80
2023-03-27T10:21:19.118Z,21.20
2023-03-27T10:26:43.348Z,21.52
2023-03-27T10:31:59.984Z,22.38
2023-03-27T10:37:11.508Z,22.03
2023-03-27T10:42:18.751Z,22.56
2023-03-27T10:47:35.118Z,22.39
2023-03-27T10:52:58.354Z,23.14
2023-03-27T10:58:09.913Z,23.63
2023-03-27T11:03:29.964Z,22.88
2023-03-27T11:09:00.745Z,22.99
2023-03-27T11:14:23.450Z,23.36
2023-03-27T11:19:49.951Z,23.39
2023-03-27T11:25:00.036Z,23.14
2023-03-27T11:30:26.843Z,23.23
2023-03-27T12:43:26.629Z,23.69
2023-03-27T12:48:52.859Z,24.41
2023-03-27T12:53:59.666Z,24.28
2023-03-27T12:59:16.018Z,24.29
2023-03-27T13:04:41.484Z,24.81
2023-03-27T13:10:23.683Z,24.24
2023-03-27T13:15:55.804Z,24.48
2023-03-27T13:21:15.050Z,24.13
2023-03-27T13:26:29.758Z,24.88
2023-03-27T13:32:07.860Z,24.36
2023-03-27T13:37:48.531Z,24.81
2023-03-27T13:43:06.574Z,24.00
2023-03-27T13:48:58.429Z,24.56
2023-03-27T13:54:41.228Z,24.45
2023-03-27T14:00:24.327Z,24.52
2023-03-27T14:05:52.323Z,24.28
2023-03-27T14:11:28.539Z,23.95
2023-03-27T14:17:04.069Z,24.06
2023-03-27T14:22:22.798Z,23.91
2023-03-27T14:27:38.865Z,23.73
2023-03-27T14:32:45.262Z,24.05
2023-03-27T14:37:57.772Z,23.90
2023-03-27T14:43:02.644Z,23.71
2023-03-27T14:48:27.657Z,23.52
2023-03-27T14:53:37.190Z,23.67
2023-03-27T14:58:46.163Z,23.58
2023-03-27T15:03:56.031Z,23.67
2023-03-27T15:09:05.597Z,23.81
2023-03-27T15:14:18.862Z,23.66
2023-03-27T15:19:28.237Z,23.86
2023-03-27T15:24:51.056Z,23.77
2023-03-27T15:30:20.415Z,23.45
2023-03-27T15:35:34.559Z,23.53
2023-03-27T15:40:44.027Z,23.93
2023-03-27T15:46:06.009Z,23.90
2023-03-27T15:51:15.321Z,23.66
2023-03-27T15:56:29.620Z,23.53
2023-03-27T16:01:37.240Z,23.45
2023-03-27T16:06:48.652Z,23.47
2023-03-27T16:11:56.428Z,23.51
2023-03-27T16:17:19.725Z,23.35
2023-03-27T16:22:33.748Z,23.39
2023-03-27T16:27:48.844Z,23.40
2023-03-27T16:32:53.802Z,23.23
2023-03-27T16:38:00.238Z,23.07
2023-03-27T16:43:04.334Z,23.01
2023-03-27T16:48:09.199Z,22.95
2023-03-27T16:53:16.479Z,22.91
2023-03-27T16:58:32.289Z,22.89
2023-03-27T17:03:37.201Z,22.76
2023-03-27T17:08:42.083Z,22.77
2023-03-27T17:14:08.294Z,22.74
2023-03-27T17:19:13.344Z,22.72
2023-03-27T17:24:21.723Z,22.43
2023-03-27T17:29:24.999Z,22.24
2023-03-27T17:34:28.758Z,22.02
2023-03-27T17:39:38.612Z,21.87
2023-03-27T17:44:48.820Z,21.76
2023-03-27T17:49:53.430Z,21.67
2023-03-27T17:55:12.877Z,21.49
2023-03-27T18:00:31.116Z,21.38
2023-03-27T18:05:37.849Z,21.31
2023-03-27T18:10:49.645Z,21.09
2023-03-27T18:15:57.056Z,20.93
2023-03-27T18:21:00.407Z,20.73
2023-03-27T18:26:10.292Z,20.46
2023-03-27T18:31:15.919Z,20.26
2023-03-27T18:36:41.513Z,20.15
2023-03-27T18:41:44.225Z,20.01
2023-03-27T18:46:54.171Z,19.76
2023-03-27T18:51:57.319Z,19.63
2023-03-27T18:57:09.223Z,19.45
2023-03-27T19:02:14.819Z,19.31
2023-03-27T19:07:23.568Z,19.11
2023-03-27T19:12:37.166Z,18.85
2023-03-27T19:17:40.394Z,18.76
2023-03-27T19:22:47.051Z,18.68
2023-03-27T19:27:54.283Z,18.62
2023-03-27T19:32:58.253Z,18.49
2023-03-27T19:38:05.381Z,18.51
2023-03-27T19:43:11.127Z,18.26
2023-03-27T19:48:18.661Z,18.08
2023-03-27T20:51:17.672Z,16.84
2023-03-27T20:56:29.607Z,16.94
2023-03-27T21:01:35.701Z,17.10
2023-03-27T21:06:41.558Z,16.68
2023-03-27T21:11:46.096Z,16.43
2023-03-27T21:16:52.139Z,16.73
2023-03-27T21:21:55.559Z,16.81
2023-03-27T21:27:01.873Z,16.63
2023-03-27T21:32:10.236Z,16.64
2023-03-27T21:37:23.772Z,16.68
2023-03-27T21:42:45.780Z,16.49
2023-03-27T21:47:52.481Z,16.52
2023-03-27T21:52:58.069Z,16.53
2023-03-27T21:58:06.267Z,16.35
2023-03-27T22:03:09.591Z,16.36
2023-03-27T22:08:14.077Z,16.38
2023-03-27T22:13:22.030Z,15.94
2023-03-27T22:18:35.880Z,15.90
2023-03-27T22:23:39.587Z,15.74
2023-03-27T22:28:59.637Z,15.79
2023-03-27T22:34:06.491Z,15.91
2023-03-27T22:39:12.779Z,15.85
2023-03-27T22:44:25.538Z,15.75
2023-03-27T22:49:32.936Z,15.79
2023-03-27T22:54:46.441Z,15.69
2023-03-27T22:59:58.197Z,15.70
2023-03-27T23:05:08.602Z,15.62
2023-03-27T23:10:12.179Z,15.36
2023-03-27T23:15:30.323Z,15.45
2023-03-27T23:20:45.774Z,15.15
2023-03-27T23:25:57.734Z,14.74
2023-03-27T23:31:13.351Z,14.53
2023-03-27T23:36:25.112Z,14.32
2023-03-27T23:41:31.560Z,14.11
2023-03-27T23:46:40.725Z,13.98
2023-03-27T23:51:43.837Z,14.04
2023-03-27T23:56:48.065Z,14.14
